Aeroporto :
LOGIN :

Iscrizione | Disclaimer

   EN    FR    IT 

 










Sommario :    VFR   VFR Marginale   IFR   IFR Intensivo   IFR Molto Intensivo
Visibilità : 
Base nubi : 
>= 8 km
>= 3000ft
5 / 8 km
1000 / 3000 ft
1500m / 5 km
500 / 1000 ft
800 / 1500m
200 / 500 ft
< 800m
< 200 ft
Simboli :   Temporali  Nebbia  Neve Forte  Precipitazioni Forti  Vento > 20 kt
SIGMETs :   Varie  Temporali  Ghiacco  Turbolenza  Onda orograficha  Ceneri Vulcaniche






- Altitudine del aeroporto : 1947 ft
- Codice IATA : OBF


EDMO - Oberpfaffenhofen

ULTIMO METAR :
  • 160720Z VRB02KT CAVOK M01/M02 Q1011

METARs OBSOLETI :
  • 160650Z 01001KT CAVOK M01/M02 Q1011
  • 160620Z 36003KT CAVOK M02/M03 Q1011
  • 160550Z 18002KT CAVOK 00/M01 Q1011
  • 160520Z AUTO 15003KT 100V180 9999 // NCD M01/M02 Q1011
  • 160450Z AUTO 19002KT 9999 // NCD M01/M01 Q1011

TAF TAF EDMO
Valido dal 16 a 06 ore il 16 a 15 ore UTC


160555Z 1606/1615 18004KT CAVOK



MetMap, La meteo Aeronautica in un colpo d'occhio ! - Copyright ORBIFLY Dicembre 2007 - Disclaimer

ORBIFLY MET'MAP TEAM :

Programmazione e sviluppo : Alexandra Zaïnal
Concezione : Baudouin d'Aumeries
Aiuto per la programmazione : Marc-Olivier Méhu
Supporto tecnico e logistico : Manuel Goepfert
Aiuto per la traduzione : Arnaldo La Scala

Contatto : metmap@orbifly.com




FONTI E CREDITI :

   NOAA